sensor_id;sensor_type;location;lat;lon;timestamp;temperature;humidity
5344;DHT22;2694;48.954;8.928;2023-05-10T00:00:27;13.30;99.90
5344;DHT22;2694;48.954;8.928;2023-05-10T00:02:54;13.30;99.90
5344;DHT22;2694;48.954;8.928;2023-05-10T00:05:21;13.20;99.90
5344;DHT22;2694;48.954;8.928;2023-05-10T00:07:48;13.20;99.90
5344;DHT22;2694;48.954;8.928;2023-05-10T00:10:15;13.20;99.90
5344;DHT22;2694;48.954;8.928;2023-05-10T00:12:42;13.20;99.90
5344;DHT22;2694;48.954;8.928;2023-05-10T00:15:10;13.20;99.90
5344;DHT22;2694;48.954;8.928;2023-05-10T00:17:37;13.20;99.90
5344;DHT22;2694;48.954;8.928;2023-05-10T00:20:05;13.10;99.90
5344;DHT22;2694;48.954;8.928;2023-05-10T00:22:32;13.10;99.90
5344;DHT22;2694;48.954;8.928;2023-05-10T00:25:00;13.10;99.90
5344;DHT22;2694;48.954;8.928;2023-05-10T00:27:27;13.00;99.90
5344;DHT22;2694;48.954;8.928;2023-05-10T00:29:54;12.90;99.90
5344;DHT22;2694;48.954;8.928;2023-05-10T00:32:22;12.90;99.90
5344;DHT22;2694;48.954;8.928;2023-05-10T00:34:49;12.90;99.90
5344;DHT22;2694;48.954;8.928;2023-05-10T00:37:16;12.90;99.90
5344;DHT22;2694;48.954;8.928;2023-05-10T00:39:43;12.90;99.90
5344;DHT22;2694;48.954;8.928;2023-05-10T00:42:10;12.80;99.90
5344;DHT22;2694;48.954;8.928;2023-05-10T00:44:37;12.80;99.90
5344;DHT22;2694;48.954;8.928;2023-05-10T00:47:04;12.90;99.90
5344;DHT22;2694;48.954;8.928;2023-05-10T00:49:32;12.90;99.90
5344;DHT22;2694;48.954;8.928;2023-05-10T00:52:00;12.80;99.90
5344;DHT22;2694;48.954;8.928;2023-05-10T00:54:27;12.90;99.90
5344;DHT22;2694;48.954;8.928;2023-05-10T00:56:54;12.90;99.90
5344;DHT22;2694;48.954;8.928;2023-05-10T00:59:22;12.80;99.90
5344;DHT22;2694;48.954;8.928;2023-05-10T01:01:49;12.80;99.90
5344;DHT22;2694;48.954;8.928;2023-05-10T01:04:17;12.90;99.90
5344;DHT22;2694;48.954;8.928;2023-05-10T01:06:47;12.80;99.90
5344;DHT22;2694;48.954;8.928;2023-05-10T01:09:14;12.80;99.90
5344;DHT22;2694;48.954;8.928;2023-05-10T01:11:41;12.80;99.90
5344;DHT22;2694;48.954;8.928;2023-05-10T01:14:08;12.80;99.90
5344;DHT22;2694;48.954;8.928;2023-05-10T01:16:37;12.80;99.90
5344;DHT22;2694;48.954;8.928;2023-05-10T01:19:08;12.90;99.90
5344;DHT22;2694;48.954;8.928;2023-05-10T01:21:43;12.90;99.90
5344;DHT22;2694;48.954;8.928;2023-05-10T01:30:42;13.00;99.90
5344;DHT22;2694;48.954;8.928;2023-05-10T01:33:18;13.00;99.90
5344;DHT22;2694;48.954;8.928;2023-05-10T01:35:53;13.00;99.90
5344;DHT22;2694;48.954;8.928;2023-05-10T01:38:29;12.90;99.90
5344;DHT22;2694;48.954;8.928;2023-05-10T01:41:05;13.00;99.90
5344;DHT22;2694;48.954;8.928;2023-05-10T01:43:39;12.90;99.90
5344;DHT22;2694;48.954;8.928;2023-05-10T01:46:13;12.90;99.90
5344;DHT22;2694;48.954;8.928;2023-05-10T01:48:47;12.90;99.90
5344;DHT22;2694;48.954;8.928;2023-05-10T01:51:18;12.80;99.90
5344;DHT22;2694;48.954;8.928;2023-05-10T01:53:48;12.80;99.90
5344;DHT22;2694;48.954;8.928;2023-05-10T01:56:16;12.80;99.90
5344;DHT22;2694;48.954;8.928;2023-05-10T01:58:44;12.70;99.90
5344;DHT22;2694;48.954;8.928;2023-05-10T02:01:14;12.70;99.90
5344;DHT22;2694;48.954;8.928;2023-05-10T02:03:43;12.80;99.90
5344;DHT22;2694;48.954;8.928;2023-05-10T02:06:13;12.80;99.90
5344;DHT22;2694;48.954;8.928;2023-05-10T02:08:41;12.80;99.90
5344;DHT22;2694;48.954;8.928;2023-05-10T02:11:12;12.80;99.90
5344;DHT22;2694;48.954;8.928;2023-05-10T02:13:40;12.80;99.90
5344;DHT22;2694;48.954;8.928;2023-05-10T02:16:09;12.70;99.90
5344;DHT22;2694;48.954;8.928;2023-05-10T02:18:37;12.70;99.90
5344;DHT22;2694;48.954;8.928;2023-05-10T02:21:08;12.70;99.90
5344;DHT22;2694;48.954;8.928;2023-05-10T02:23:36;12.80;99.90
5344;DHT22;2694;48.954;8.928;2023-05-10T02:26:04;12.70;99.90
5344;DHT22;2694;48.954;8.928;2023-05-10T02:28:33;12.80;99.90
5344;DHT22;2694;48.954;8.928;2023-05-10T02:31:03;12.80;99.90
5344;DHT22;2694;48.954;8.928;2023-05-10T02:33:32;12.70;99.90
5344;DHT22;2694;48.954;8.928;2023-05-10T02:36:02;12.80;99.90
5344;DHT22;2694;48.954;8.928;2023-05-10T02:38:31;12.80;99.90
5344;DHT22;2694;48.954;8.928;2023-05-10T02:40:59;12.80;99.90
5344;DHT22;2694;48.954;8.928;2023-05-10T02:43:28;12.70;99.90
5344;DHT22;2694;48.954;8.928;2023-05-10T02:45:57;12.80;99.90
5344;DHT22;2694;48.954;8.928;2023-05-10T02:48:24;12.80;99.90
5344;DHT22;2694;48.954;8.928;2023-05-10T02:50:52;12.90;99.90
5344;DHT22;2694;48.954;8.928;2023-05-10T02:53:25;12.90;99.90
5344;DHT22;2694;48.954;8.928;2023-05-10T02:55:58;12.80;99.90
5344;DHT22;2694;48.954;8.928;2023-05-10T02:58:26;12.80;99.90
5344;DHT22;2694;48.954;8.928;2023-05-10T03:00:53;12.80;99.90
5344;DHT22;2694;48.954;8.928;2023-05-10T03:03:20;12.90;99.90
5344;DHT22;2694;48.954;8.928;2023-05-10T03:05:47;12.90;99.90
5344;DHT22;2694;48.954;8.928;2023-05-10T03:08:14;12.90;99.90
5344;DHT22;2694;48.954;8.928;2023-05-10T03:10:51;13.00;99.90
5344;DHT22;2694;48.954;8.928;2023-05-10T03:13:31;12.90;99.90
5344;DHT22;2694;48.954;8.928;2023-05-10T03:16:07;12.90;99.90
5344;DHT22;2694;48.954;8.928;2023-05-10T03:18:40;12.90;99.90
5344;DHT22;2694;48.954;8.928;2023-05-10T03:21:11;12.90;99.90
5344;DHT22;2694;48.954;8.928;2023-05-10T03:23:42;13.00;99.90
5344;DHT22;2694;48.954;8.928;2023-05-10T03:26:10;12.90;99.90
5344;DHT22;2694;48.954;8.928;2023-05-10T03:28:41;12.90;99.90
5344;DHT22;2694;48.954;8.928;2023-05-10T03:31:08;12.90;99.90
5344;DHT22;2694;48.954;8.928;2023-05-10T03:33:36;12.90;99.90
5344;DHT22;2694;48.954;8.928;2023-05-10T03:36:12;12.90;99.90
5344;DHT22;2694;48.954;8.928;2023-05-10T03:38:39;12.90;99.90
5344;DHT22;2694;48.954;8.928;2023-05-10T03:41:06;12.90;99.90
5344;DHT22;2694;48.954;8.928;2023-05-10T03:43:33;13.00;99.90
5344;DHT22;2694;48.954;8.928;2023-05-10T03:46:03;13.10;99.90
5344;DHT22;2694;48.954;8.928;2023-05-10T03:48:30;13.00;99.90
5344;DHT22;2694;48.954;8.928;2023-05-10T03:50:56;13.00;99.90
5344;DHT22;2694;48.954;8.928;2023-05-10T03:53:24;13.00;99.90
5344;DHT22;2694;48.954;8.928;2023-05-10T03:55:51;13.00;99.90
5344;DHT22;2694;48.954;8.928;2023-05-10T03:58:18;13.00;99.90
5344;DHT22;2694;48.954;8.928;2023-05-10T04:00:45;12.90;99.90
5344;DHT22;2694;48.954;8.928;2023-05-10T04:03:13;12.90;99.90
5344;DHT22;2694;48.954;8.928;2023-05-10T04:05:40;12.90;99.90
5344;DHT22;2694;48.954;8.928;2023-05-10T04:08:07;12.90;99.90
5344;DHT22;2694;48.954;8.928;2023-05-10T04:10:34;12.90;99.90
5344;DHT22;2694;48.954;8.928;2023-05-10T04:13:01;12.90;99.90
5344;DHT22;2694;48.954;8.928;2023-05-10T04:15:28;13.00;99.90
5344;DHT22;2694;48.954;8.928;2023-05-10T04:17:55;13.00;99.90
5344;DHT22;2694;48.954;8.928;2023-05-10T04:20:23;12.90;99.90
5344;DHT22;2694;48.954;8.928;2023-05-10T04:22:52;12.90;99.90
5344;DHT22;2694;48.954;8.928;2023-05-10T04:25:19;13.00;99.90
5344;DHT22;2694;48.954;8.928;2023-05-10T04:27:46;12.90;99.90
5344;DHT22;2694;48.954;8.928;2023-05-10T04:30:13;12.90;99.90
5344;DHT22;2694;48.954;8.928;2023-05-10T04:32:41;12.90;99.90
5344;DHT22;2694;48.954;8.928;2023-05-10T04:35:08;12.90;99.90
5344;DHT22;2694;48.954;8.928;2023-05-10T04:37:37;12.80;99.90
5344;DHT22;2694;48.954;8.928;2023-05-10T04:40:05;12.80;99.90
5344;DHT22;2694;48.954;8.928;2023-05-10T04:42:33;12.80;99.90
5344;DHT22;2694;48.954;8.928;2023-05-10T04:45:00;12.90;99.90
5344;DHT22;2694;48.954;8.928;2023-05-10T04:47:27;12.90;99.90
5344;DHT22;2694;48.954;8.928;2023-05-10T04:49:53;12.90;99.90
5344;DHT22;2694;48.954;8.928;2023-05-10T04:52:20;13.00;99.90
5344;DHT22;2694;48.954;8.928;2023-05-10T04:54:49;12.90;99.90
5344;DHT22;2694;48.954;8.928;2023-05-10T04:57:16;12.90;99.90
5344;DHT22;2694;48.954;8.928;2023-05-10T04:59:43;12.90;99.90
5344;DHT22;2694;48.954;8.928;2023-05-10T05:02:10;12.90;99.90
5344;DHT22;2694;48.954;8.928;2023-05-10T05:04:37;13.10;99.90
5344;DHT22;2694;48.954;8.928;2023-05-10T05:07:04;13.10;99.90
5344;DHT22;2694;48.954;8.928;2023-05-10T05:09:31;13.10;99.90
5344;DHT22;2694;48.954;8.928;2023-05-10T05:12:00;13.30;99.90
5344;DHT22;2694;48.954;8.928;2023-05-10T05:14:27;13.30;99.90
5344;DHT22;2694;48.954;8.928;2023-05-10T05:16:54;13.30;99.90
5344;DHT22;2694;48.954;8.928;2023-05-10T05:19:21;13.30;99.90
5344;DHT22;2694;48.954;8.928;2023-05-10T05:21:48;13.40;99.90
5344;DHT22;2694;48.954;8.928;2023-05-10T05:24:15;13.40;99.90
5344;DHT22;2694;48.954;8.928;2023-05-10T05:26:42;13.30;99.90
5344;DHT22;2694;48.954;8.928;2023-05-10T05:29:10;13.30;99.90
5344;DHT22;2694;48.954;8.928;2023-05-10T05:31:37;13.40;99.90
5344;DHT22;2694;48.954;8.928;2023-05-10T05:34:04;13.60;99.90
5344;DHT22;2694;48.954;8.928;2023-05-10T05:36:31;13.70;99.90
5344;DHT22;2694;48.954;8.928;2023-05-10T05:38:58;13.70;99.90
5344;DHT22;2694;48.954;8.928;2023-05-10T05:41:25;13.60;99.90
5344;DHT22;2694;48.954;8.928;2023-05-10T05:43:52;13.60;99.90
5344;DHT22;2694;48.954;8.928;2023-05-10T05:46:20;13.50;99.90
5344;DHT22;2694;48.954;8.928;2023-05-10T05:48:47;13.60;99.90
5344;DHT22;2694;48.954;8.928;2023-05-10T05:51:14;13.70;99.90
5344;DHT22;2694;48.954;8.928;2023-05-10T05:53:41;13.60;99.90
5344;DHT22;2694;48.954;8.928;2023-05-10T05:56:08;13.60;99.90
5344;DHT22;2694;48.954;8.928;2023-05-10T05:58:35;13.60;99.90
5344;DHT22;2694;48.954;8.928;2023-05-10T06:01:02;13.70;99.90
5344;DHT22;2694;48.954;8.928;2023-05-10T06:03:31;13.60;99.90
5344;DHT22;2694;48.954;8.928;2023-05-10T06:05:58;13.70;99.90
5344;DHT22;2694;48.954;8.928;2023-05-10T06:08:25;13.80;99.90
5344;DHT22;2694;48.954;8.928;2023-05-10T06:10:52;13.90;99.90
5344;DHT22;2694;48.954;8.928;2023-05-10T06:13:19;13.90;99.90
5344;DHT22;2694;48.954;8.928;2023-05-10T06:15:46;14.00;99.90
5344;DHT22;2694;48.954;8.928;2023-05-10T06:18:13;14.10;99.90
5344;DHT22;2694;48.954;8.928;2023-05-10T06:20:42;14.00;99.90
5344;DHT22;2694;48.954;8.928;2023-05-10T06:23:09;14.10;99.90
5344;DHT22;2694;48.954;8.928;2023-05-10T06:25:36;14.00;99.90
5344;DHT22;2694;48.954;8.928;2023-05-10T06:28:03;14.00;99.90
5344;DHT22;2694;48.954;8.928;2023-05-10T06:30:30;14.00;99.90
5344;DHT22;2694;48.954;8.928;2023-05-10T06:32:57;14.20;99.90
5344;DHT22;2694;48.954;8.928;2023-05-10T06:35:24;14.30;99.90
5344;DHT22;2694;48.954;8.928;2023-05-10T06:37:53;14.40;99.90
5344;DHT22;2694;48.954;8.928;2023-05-10T06:40:20;14.30;99.90
5344;DHT22;2694;48.954;8.928;2023-05-10T06:42:47;14.40;99.90
5344;DHT22;2694;48.954;8.928;2023-05-10T06:45:14;14.60;99.90
5344;DHT22;2694;48.954;8.928;2023-05-10T06:47:41;14.70;99.90
5344;DHT22;2694;48.954;8.928;2023-05-10T06:50:09;14.80;99.90
5344;DHT22;2694;48.954;8.928;2023-05-10T06:52:37;14.80;99.90
5344;DHT22;2694;48.954;8.928;2023-05-10T06:55:06;14.70;99.90
5344;DHT22;2694;48.954;8.928;2023-05-10T06:57:34;14.70;99.90
5344;DHT22;2694;48.954;8.928;2023-05-10T07:00:01;14.60;99.90
5344;DHT22;2694;48.954;8.928;2023-05-10T07:02:30;14.60;99.90
5344;DHT22;2694;48.954;8.928;2023-05-10T07:04:57;14.70;99.90
5344;DHT22;2694;48.954;8.928;2023-05-10T07:07:24;14.80;99.90
5344;DHT22;2694;48.954;8.928;2023-05-10T07:09:51;14.80;99.90
5344;DHT22;2694;48.954;8.928;2023-05-10T07:12:19;15.00;99.90
5344;DHT22;2694;48.954;8.928;2023-05-10T07:14:46;15.10;99.90
5344;DHT22;2694;48.954;8.928;2023-05-10T07:17:13;15.20;99.90
5344;DHT22;2694;48.954;8.928;2023-05-10T07:19:40;15.10;99.90
5344;DHT22;2694;48.954;8.928;2023-05-10T07:22:07;15.00;99.90
5344;DHT22;2694;48.954;8.928;2023-05-10T07:24:34;14.90;99.90
5344;DHT22;2694;48.954;8.928;2023-05-10T07:27:02;14.80;99.90
5344;DHT22;2694;48.954;8.928;2023-05-10T07:29:31;14.60;99.90
5344;DHT22;2694;48.954;8.928;2023-05-10T07:31:58;14.60;99.90
5344;DHT22;2694;48.954;8.928;2023-05-10T07:34:25;14.60;99.90
5344;DHT22;2694;48.954;8.928;2023-05-10T07:36:52;14.70;99.90
5344;DHT22;2694;48.954;8.928;2023-05-10T07:39:19;14.80;99.90
5344;DHT22;2694;48.954;8.928;2023-05-10T07:41:47;14.70;99.90
5344;DHT22;2694;48.954;8.928;2023-05-10T07:44:14;14.80;99.90
5344;DHT22;2694;48.954;8.928;2023-05-10T07:46:45;14.80;99.90
5344;DHT22;2694;48.954;8.928;2023-05-10T07:49:12;14.90;99.90
5344;DHT22;2694;48.954;8.928;2023-05-10T07:51:39;15.10;99.90
5344;DHT22;2694;48.954;8.928;2023-05-10T07:54:07;15.10;99.90
5344;DHT22;2694;48.954;8.928;2023-05-10T07:56:34;15.10;99.90
5344;DHT22;2694;48.954;8.928;2023-05-10T07:59:02;15.10;99.90
5344;DHT22;2694;48.954;8.928;2023-05-10T08:01:31;15.20;99.90
5344;DHT22;2694;48.954;8.928;2023-05-10T08:04:00;15.30;99.90
5344;DHT22;2694;48.954;8.928;2023-05-10T08:06:28;15.30;99.90
5344;DHT22;2694;48.954;8.928;2023-05-10T08:08:56;15.40;99.90
5344;DHT22;2694;48.954;8.928;2023-05-10T08:11:25;15.40;99.90
5344;DHT22;2694;48.954;8.928;2023-05-10T08:13:53;15.40;99.90
5344;DHT22;2694;48.954;8.928;2023-05-10T08:16:20;15.40;99.90
5344;DHT22;2694;48.954;8.928;2023-05-10T08:18:48;15.50;99.90
5344;DHT22;2694;48.954;8.928;2023-05-10T08:21:17;15.70;99.90
5344;DHT22;2694;48.954;8.928;2023-05-10T08:23:44;15.70;99.90
5344;DHT22;2694;48.954;8.928;2023-05-10T08:26:11;15.90;99.90
5344;DHT22;2694;48.954;8.928;2023-05-10T08:28:38;16.20;99.90
5344;DHT22;2694;48.954;8.928;2023-05-10T08:31:05;16.30;99.90
5344;DHT22;2694;48.954;8.928;2023-05-10T08:33:32;16.20;99.90
5344;DHT22;2694;48.954;8.928;2023-05-10T08:35:59;16.00;99.90
5344;DHT22;2694;48.954;8.928;2023-05-10T08:38:28;16.20;99.90
5344;DHT22;2694;48.954;8.928;2023-05-10T08:40:55;16.30;99.90
5344;DHT22;2694;48.954;8.928;2023-05-10T08:43:26;15.80;99.90
5344;DHT22;2694;48.954;8.928;2023-05-10T08:45:54;15.40;99.90
5344;DHT22;2694;48.954;8.928;2023-05-10T08:48:24;15.10;99.90
5344;DHT22;2694;48.954;8.928;2023-05-10T08:50:53;14.90;99.90
5344;DHT22;2694;48.954;8.928;2023-05-10T08:53:21;14.70;99.90
5344;DHT22;2694;48.954;8.928;2023-05-10T08:55:52;14.80;99.90
5344;DHT22;2694;48.954;8.928;2023-05-10T08:58:20;14.80;99.90
5344;DHT22;2694;48.954;8.928;2023-05-10T09:00:49;15.10;99.90
5344;DHT22;2694;48.954;8.928;2023-05-10T09:03:16;15.30;99.90
5344;DHT22;2694;48.954;8.928;2023-05-10T09:05:44;15.70;99.90
5344;DHT22;2694;48.954;8.928;2023-05-10T09:08:11;15.90;99.90
5344;DHT22;2694;48.954;8.928;2023-05-10T09:10:39;16.30;99.90
5344;DHT22;2694;48.954;8.928;2023-05-10T09:13:10;16.80;99.90
5344;DHT22;2694;48.954;8.928;2023-05-10T09:15:38;17.20;99.90
5344;DHT22;2694;48.954;8.928;2023-05-10T09:18:05;17.60;99.90
5344;DHT22;2694;48.954;8.928;2023-05-10T09:20:32;18.10;99.90
5344;DHT22;2694;48.954;8.928;2023-05-10T09:22:59;17.90;99.90
5344;DHT22;2694;48.954;8.928;2023-05-10T09:25:26;17.40;99.90
5344;DHT22;2694;48.954;8.928;2023-05-10T09:27:53;17.20;99.90
5344;DHT22;2694;48.954;8.928;2023-05-10T09:30:26;16.80;99.90
5344;DHT22;2694;48.954;8.928;2023-05-10T09:32:54;16.90;99.90
5344;DHT22;2694;48.954;8.928;2023-05-10T09:35:24;17.00;99.90
5344;DHT22;2694;48.954;8.928;2023-05-10T09:37:52;16.90;99.90
5344;DHT22;2694;48.954;8.928;2023-05-10T09:40:21;16.90;99.90
5344;DHT22;2694;48.954;8.928;2023-05-10T09:42:52;16.90;99.90
5344;DHT22;2694;48.954;8.928;2023-05-10T09:45:20;17.10;99.90
5344;DHT22;2694;48.954;8.928;2023-05-10T09:47:48;17.40;99.90
5344;DHT22;2694;48.954;8.928;2023-05-10T09:50:15;17.50;99.90
5344;DHT22;2694;48.954;8.928;2023-05-10T09:52:48;17.60;99.90
5344;DHT22;2694;48.954;8.928;2023-05-10T09:55:18;17.70;99.90
5344;DHT22;2694;48.954;8.928;2023-05-10T09:57:46;17.60;99.90
5344;DHT22;2694;48.954;8.928;2023-05-10T10:00:18;17.40;99.90
5344;DHT22;2694;48.954;8.928;2023-05-10T10:02:53;17.40;99.90
5344;DHT22;2694;48.954;8.928;2023-05-10T10:05:20;17.60;99.90
5344;DHT22;2694;48.954;8.928;2023-05-10T10:07:47;18.00;99.90
5344;DHT22;2694;48.954;8.928;2023-05-10T10:10:16;18.10;99.90
5344;DHT22;2694;48.954;8.928;2023-05-10T10:12:43;17.90;99.90
5344;DHT22;2694;48.954;8.928;2023-05-10T10:15:11;17.60;99.90
5344;DHT22;2694;48.954;8.928;2023-05-10T10:17:38;17.50;99.90
5344;DHT22;2694;48.954;8.928;2023-05-10T10:20:08;17.80;99.90
5344;DHT22;2694;48.954;8.928;2023-05-10T10:22:37;17.60;99.90
5344;DHT22;2694;48.954;8.928;2023-05-10T10:25:05;17.40;99.90
5344;DHT22;2694;48.954;8.928;2023-05-10T10:27:39;17.00;99.90
5344;DHT22;2694;48.954;8.928;2023-05-10T10:30:16;16.50;99.90
5344;DHT22;2694;48.954;8.928;2023-05-10T10:33:06;15.80;99.90
5344;DHT22;2694;48.954;8.928;2023-05-10T10:35:39;15.00;99.90
5344;DHT22;2694;48.954;8.928;2023-05-10T10:38:08;15.20;99.90
5344;DHT22;2694;48.954;8.928;2023-05-10T10:40:35;14.50;99.90
5344;DHT22;2694;48.954;8.928;2023-05-10T10:43:23;14.60;99.90
5344;DHT22;2694;48.954;8.928;2023-05-10T10:46:11;14.80;99.90
5344;DHT22;2694;48.954;8.928;2023-05-10T10:48:39;15.10;99.90
5344;DHT22;2694;48.954;8.928;2023-05-10T10:51:07;15.70;99.90
5344;DHT22;2694;48.954;8.928;2023-05-10T10:53:37;16.00;99.90
5344;DHT22;2694;48.954;8.928;2023-05-10T10:56:06;16.20;99.90
5344;DHT22;2694;48.954;8.928;2023-05-10T10:58:37;16.40;99.90
5344;DHT22;2694;48.954;8.928;2023-05-10T11:01:13;16.40;99.90
5344;DHT22;2694;48.954;8.928;2023-05-10T11:06:33;16.80;99.90
5344;DHT22;2694;48.954;8.928;2023-05-10T11:09:06;16.90;99.90
5344;DHT22;2694;48.954;8.928;2023-05-10T11:11:34;17.00;99.90
5344;DHT22;2694;48.954;8.928;2023-05-10T11:14:03;17.30;99.90
5344;DHT22;2694;48.954;8.928;2023-05-10T11:16:40;17.50;99.90
5344;DHT22;2694;48.954;8.928;2023-05-10T11:19:09;17.50;99.90
5344;DHT22;2694;48.954;8.928;2023-05-10T11:21:46;17.20;99.90
5344;DHT22;2694;48.954;8.928;2023-05-10T11:24:15;17.10;99.90
5344;DHT22;2694;48.954;8.928;2023-05-10T11:26:42;17.20;99.90
5344;DHT22;2694;48.954;8.928;2023-05-10T11:29:10;17.60;99.90
5344;DHT22;2694;48.954;8.928;2023-05-10T11:31:42;17.80;99.90
5344;DHT22;2694;48.954;8.928;2023-05-10T11:34:10;17.90;99.90
5344;DHT22;2694;48.954;8.928;2023-05-10T11:36:39;17.80;99.90
5344;DHT22;2694;48.954;8.928;2023-05-10T11:39:08;18.00;99.90
5344;DHT22;2694;48.954;8.928;2023-05-10T11:41:37;18.00;99.90
5344;DHT22;2694;48.954;8.928;2023-05-10T11:44:04;18.10;99.90
5344;DHT22;2694;48.954;8.928;2023-05-10T11:46:31;18.10;99.90
5344;DHT22;2694;48.954;8.928;2023-05-10T11:48:59;18.00;99.90
5344;DHT22;2694;48.954;8.928;2023-05-10T11:51:32;18.10;99.90
5344;DHT22;2694;48.954;8.928;2023-05-10T11:53:59;17.80;99.90
5344;DHT22;2694;48.954;8.928;2023-05-10T11:56:27;18.00;99.90
5344;DHT22;2694;48.954;8.928;2023-05-10T11:58:56;17.80;99.90
5344;DHT22;2694;48.954;8.928;2023-05-10T12:01:24;17.60;99.90
5344;DHT22;2694;48.954;8.928;2023-05-10T12:03:53;17.40;99.90
5344;DHT22;2694;48.954;8.928;2023-05-10T12:06:26;17.20;99.90
5344;DHT22;2694;48.954;8.928;2023-05-10T12:08:54;17.20;99.90
5344;DHT22;2694;48.954;8.928;2023-05-10T12:11:24;17.20;99.90
5344;DHT22;2694;48.954;8.928;2023-05-10T12:13:54;17.10;99.90
5344;DHT22;2694;48.954;8.928;2023-05-10T12:16:23;17.00;99.90
5344;DHT22;2694;48.954;8.928;2023-05-10T12:18:51;17.00;99.90
5344;DHT22;2694;48.954;8.928;2023-05-10T12:21:19;17.10;99.90
5344;DHT22;2694;48.954;8.928;2023-05-10T12:23:48;17.40;99.90
5344;DHT22;2694;48.954;8.928;2023-05-10T12:26:15;17.40;99.90
5344;DHT22;2694;48.954;8.928;2023-05-10T12:28:42;17.30;99.90
5344;DHT22;2694;48.954;8.928;2023-05-10T12:31:10;17.10;99.90
5344;DHT22;2694;48.954;8.928;2023-05-10T12:33:38;17.00;99.90
5344;DHT22;2694;48.954;8.928;2023-05-10T12:36:08;17.00;99.90
5344;DHT22;2694;48.954;8.928;2023-05-10T12:38:37;17.00;99.90
5344;DHT22;2694;48.954;8.928;2023-05-10T12:41:06;17.10;99.90
5344;DHT22;2694;48.954;8.928;2023-05-10T12:43:33;17.10;99.90
5344;DHT22;2694;48.954;8.928;2023-05-10T12:46:05;17.40;99.90
5344;DHT22;2694;48.954;8.928;2023-05-10T12:48:34;17.50;99.90
5344;DHT22;2694;48.954;8.928;2023-05-10T12:51:02;17.50;99.90
5344;DHT22;2694;48.954;8.928;2023-05-10T12:53:29;17.50;99.90
5344;DHT22;2694;48.954;8.928;2023-05-10T12:55:56;17.40;99.90
5344;DHT22;2694;48.954;8.928;2023-05-10T12:58:23;17.60;99.90
5344;DHT22;2694;48.954;8.928;2023-05-10T13:00:50;17.70;99.90
5344;DHT22;2694;48.954;8.928;2023-05-10T13:03:18;17.80;99.90
5344;DHT22;2694;48.954;8.928;2023-05-10T13:05:46;17.90;99.90
5344;DHT22;2694;48.954;8.928;2023-05-10T13:08:13;18.20;99.90
5344;DHT22;2694;48.954;8.928;2023-05-10T13:10:41;18.40;99.90
5344;DHT22;2694;48.954;8.928;2023-05-10T13:13:08;18.30;99.90
5344;DHT22;2694;48.954;8.928;2023-05-10T13:15:36;18.20;99.90
5344;DHT22;2694;48.954;8.928;2023-05-10T13:18:06;18.10;99.90
5344;DHT22;2694;48.954;8.928;2023-05-10T13:20:34;18.20;99.90
5344;DHT22;2694;48.954;8.928;2023-05-10T13:23:03;18.20;99.90
5344;DHT22;2694;48.954;8.928;2023-05-10T13:25:30;18.40;99.90
5344;DHT22;2694;48.954;8.928;2023-05-10T13:27:57;18.30;99.90
5344;DHT22;2694;48.954;8.928;2023-05-10T13:30:24;18.10;99.90
5344;DHT22;2694;48.954;8.928;2023-05-10T13:32:51;18.10;99.90
5344;DHT22;2694;48.954;8.928;2023-05-10T13:35:18;18.10;99.90
5344;DHT22;2694;48.954;8.928;2023-05-10T13:37:45;17.80;99.90
5344;DHT22;2694;48.954;8.928;2023-05-10T13:40:13;18.00;99.90
5344;DHT22;2694;48.954;8.928;2023-05-10T13:42:42;18.30;99.90
5344;DHT22;2694;48.954;8.928;2023-05-10T13:45:10;18.30;99.90
5344;DHT22;2694;48.954;8.928;2023-05-10T13:47:38;18.00;99.90
5344;DHT22;2694;48.954;8.928;2023-05-10T13:50:06;18.10;99.90
5344;DHT22;2694;48.954;8.928;2023-05-10T13:52:33;18.10;99.90
5344;DHT22;2694;48.954;8.928;2023-05-10T13:55:00;18.30;99.90
5344;DHT22;2694;48.954;8.928;2023-05-10T13:57:29;18.40;99.90
5344;DHT22;2694;48.954;8.928;2023-05-10T13:59:56;18.10;99.90
5344;DHT22;2694;48.954;8.928;2023-05-10T14:02:23;18.00;99.90
5344;DHT22;2694;48.954;8.928;2023-05-10T14:04:52;17.90;99.90
5344;DHT22;2694;48.954;8.928;2023-05-10T14:07:19;18.00;99.90
5344;DHT22;2694;48.954;8.928;2023-05-10T14:09:47;18.00;99.90
5344;DHT22;2694;48.954;8.928;2023-05-10T14:12:14;18.30;99.90
5344;DHT22;2694;48.954;8.928;2023-05-10T14:14:43;18.40;99.90
5344;DHT22;2694;48.954;8.928;2023-05-10T14:17:10;18.30;99.90
5344;DHT22;2694;48.954;8.928;2023-05-10T14:19:37;18.30;99.90
5344;DHT22;2694;48.954;8.928;2023-05-10T14:22:05;18.10;99.90
5344;DHT22;2694;48.954;8.928;2023-05-10T14:24:32;18.10;99.90
5344;DHT22;2694;48.954;8.928;2023-05-10T14:26:59;18.20;99.90
5344;DHT22;2694;48.954;8.928;2023-05-10T14:29:26;18.10;99.90
5344;DHT22;2694;48.954;8.928;2023-05-10T14:31:54;18.00;99.90
5344;DHT22;2694;48.954;8.928;2023-05-10T14:34:21;18.00;99.90
5344;DHT22;2694;48.954;8.928;2023-05-10T14:36:48;18.10;99.90
5344;DHT22;2694;48.954;8.928;2023-05-10T14:39:15;18.20;99.90
5344;DHT22;2694;48.954;8.928;2023-05-10T14:41:42;18.10;99.90
5344;DHT22;2694;48.954;8.928;2023-05-10T14:44:11;17.90;99.90
5344;DHT22;2694;48.954;8.928;2023-05-10T14:46:38;18.00;99.90
5344;DHT22;2694;48.954;8.928;2023-05-10T14:49:07;17.90;99.90
5344;DHT22;2694;48.954;8.928;2023-05-10T14:51:34;18.00;99.90
5344;DHT22;2694;48.954;8.928;2023-05-10T14:54:02;18.00;99.90
5344;DHT22;2694;48.954;8.928;2023-05-10T14:56:29;18.00;99.90
5344;DHT22;2694;48.954;8.928;2023-05-10T14:58:56;18.30;99.90
5344;DHT22;2694;48.954;8.928;2023-05-10T15:01:23;18.30;99.90
5344;DHT22;2694;48.954;8.928;2023-05-10T15:03:50;18.20;99.90
5344;DHT22;2694;48.954;8.928;2023-05-10T15:06:23;18.00;99.90
5344;DHT22;2694;48.954;8.928;2023-05-10T15:08:50;17.90;99.90
5344;DHT22;2694;48.954;8.928;2023-05-10T15:11:18;17.80;99.90
5344;DHT22;2694;48.954;8.928;2023-05-10T15:13:47;17.90;99.90
5344;DHT22;2694;48.954;8.928;2023-05-10T15:16:14;17.90;99.90
5344;DHT22;2694;48.954;8.928;2023-05-10T15:18:41;18.00;99.90
5344;DHT22;2694;48.954;8.928;2023-05-10T15:21:08;18.10;99.90
5344;DHT22;2694;48.954;8.928;2023-05-10T15:23:36;18.10;99.90
5344;DHT22;2694;48.954;8.928;2023-05-10T15:26:03;18.20;99.90
5344;DHT22;2694;48.954;8.928;2023-05-10T15:28:30;18.20;99.90
5344;DHT22;2694;48.954;8.928;2023-05-10T15:30:57;18.10;99.90
5344;DHT22;2694;48.954;8.928;2023-05-10T15:33:24;18.00;99.90
5344;DHT22;2694;48.954;8.928;2023-05-10T15:35:53;17.90;99.90
5344;DHT22;2694;48.954;8.928;2023-05-10T15:38:20;17.80;99.90
5344;DHT22;2694;48.954;8.928;2023-05-10T15:40:49;17.80;99.90
5344;DHT22;2694;48.954;8.928;2023-05-10T15:43:16;17.80;99.90
5344;DHT22;2694;48.954;8.928;2023-05-10T15:45:43;17.90;99.90
5344;DHT22;2694;48.954;8.928;2023-05-10T15:48:10;17.80;99.90
5344;DHT22;2694;48.954;8.928;2023-05-10T15:50:37;17.80;99.90
5344;DHT22;2694;48.954;8.928;2023-05-10T15:53:05;17.80;99.90
5344;DHT22;2694;48.954;8.928;2023-05-10T15:55:32;17.90;99.90
5344;DHT22;2694;48.954;8.928;2023-05-10T15:58:01;18.00;99.90
5344;DHT22;2694;48.954;8.928;2023-05-10T16:00:28;18.00;99.90
5344;DHT22;2694;48.954;8.928;2023-05-10T16:02:55;17.90;99.90
5344;DHT22;2694;48.954;8.928;2023-05-10T16:05:22;17.90;99.90
5344;DHT22;2694;48.954;8.928;2023-05-10T16:07:49;17.80;99.90
5344;DHT22;2694;48.954;8.928;2023-05-10T16:10:16;17.70;99.90
5344;DHT22;2694;48.954;8.928;2023-05-10T16:12:43;17.80;99.90
5344;DHT22;2694;48.954;8.928;2023-05-10T16:15:11;17.70;99.90
5344;DHT22;2694;48.954;8.928;2023-05-10T16:17:39;17.50;99.90